Share

Holyoke, CO

Holyoke Municipal (KHEQ) Elev 3730 ft | 40.57 °N, 102.28 °W | Change Station

Current weather conditions updated 4 minutes ago

Clear
Clear
34 °F
Feels Like 29 °F
N
6
Wind Variable Wind from ENE
Sunrise 6:09 AM
Sunset 7:29 PM
Moon Waning Gibbous

Tomorrow is forecast to be Warmer than today.

Pressure 30.14 in
Visibility 10.0 miles
Clouds Clear
Windchill 29 °F
Dew Point 30 °F
Humidity 87%
Rainfall 0.00 in
Snow Depth Not available.
UV 0 out of 16
Pollen 10.80 out of 12
Air Quality Not available.
Flu Activity Sporadic
METAR KHEQ 170435Z AUTO 07005KT 10SM CLR 01/M01 A3014 RMK AO2

More Conditions Fewer Conditions

Pressure 30.14 in
Visibility 10.0 miles
Clouds Clear
Windchill 29 °F
Dew Point 30 °F
Humidity 87%
Rainfall 0.00 in
Snow Depth Not available.
UV 0 out of 16
Pollen 10.80 out of 12
Air Quality Not available.
Flu Activity Sporadic
METAR KHEQ 170435Z AUTO 07005KT 10SM CLR 01/M01 A3014 RMK AO2

More Conditions Fewer Conditions

10-Day Forecast

Almanac

Astronomy

Apr. 16, 2014 Rise Set
Actual Time 6:09 AM MDT 7:29 PM MDT
Civil Twilight 5:40 AM MDT 7:58 PM MDT
Nautical Twilight 5:06 AM MDT 8:32 PM MDT
Astronomical Twilight 4:30 AM MDT 9:08 PM MDT
Moon 9:15 PM MDT (4/16) 6:57 AM MDT (4/16)
Length of Visible Light 14h 17m
Length of Day
13h 20m
Tomorrow will be 2m 32s longer.
Waning Gibbous, 96% of the Moon is Illuminated
Apr 17
Waning Gibbous
Apr 22
Last Quarter
Apr 29
New
May 6
First Quarter
May 14
Full

Yesterday's Extremes

State Highs State Lows

Community

  • symphony in blue....
    symphony in blue....
  • Dawn Surprise
    Dawn Surprise
  • Yucca delight
    Yucca delight
  • Sunset inside of the Ocean
    Sunset inside of the Ocean
  • Lunar eclipse 15 April 2014
    Lunar eclipse 15 April 2014

WunderPhotos

Upload Photos

1,701,855 photos uploaded!

WunderBlogs® & News

Nearby

Snow Depth

Station Depth Elevation
Copeland Lake 1 in 8600 ft
Niwot 54 in 9910 ft
Wild Basin 54 in 9560 ft
University Camp 81 in 10300 ft
Bear Lake 64 in 9500 ft

Coastal Water Temperatures

Place Temperature
No Stations Reporting

Earthquake Activity

City Distance Mag. Time & Date
No recent earthquake activity has been reported nearby.
Minimum magnitude displayed is 2.5.

Nearby Weather Stations

Station Location Temp. Windchill Dew Point Humidity Wind Precip. Elev Updated Type
Clarkville, CO, Haxtun, CO 34.2 °F 34 °F 32 °F 91% NE  at  0.0 mph 0.00 in / hr 3973 ft 10:39 PM MDT Rapid Fire

Show More Stations Show Fewer Stations

What do you think?

We're not finished. Please let us know what you like, what you don't like, and what you are still missing.